createdAt,value
2019-01-02T00:00:19.676Z,0.00
2019-01-02T00:01:19.690Z,0.00
2019-01-02T00:02:19.685Z,0.00
2019-01-02T00:03:19.645Z,0.00
2019-01-02T00:04:19.638Z,0.00
2019-01-02T00:05:19.626Z,0.00
2019-01-02T00:06:19.621Z,0.00
2019-01-02T00:07:19.623Z,0.00
2019-01-02T00:08:19.629Z,0.00
2019-01-02T00:09:19.595Z,0.00
2019-01-02T00:10:19.602Z,0.00
2019-01-02T00:11:19.567Z,0.00
2019-01-02T00:12:19.556Z,0.00
2019-01-02T00:13:19.564Z,0.00
2019-01-02T00:14:19.536Z,0.00
2019-01-02T00:15:19.531Z,0.00
2019-01-02T00:16:19.531Z,0.00
2019-01-02T00:17:19.501Z,0.00
2019-01-02T00:18:19.505Z,0.00
2019-01-02T00:19:19.492Z,0.00
2019-01-02T00:20:19.482Z,0.00
2019-01-02T00:21:19.466Z,0.00
2019-01-02T00:22:19.454Z,0.00
2019-01-02T00:23:19.454Z,0.00
2019-01-02T00:24:19.429Z,0.00
2019-01-02T00:25:19.414Z,0.00
2019-01-02T00:26:19.431Z,0.00
2019-01-02T00:27:19.411Z,0.00
2019-01-02T00:28:19.404Z,0.00
2019-01-02T00:43:06.805Z,0.00
2019-01-02T00:44:06.796Z,0.00
2019-01-02T00:45:06.773Z,0.00
2019-01-02T00:46:06.761Z,0.00
2019-01-02T00:47:06.754Z,0.00
2019-01-02T00:48:06.744Z,0.00
2019-01-02T00:49:06.751Z,0.00
2019-01-02T00:50:06.721Z,0.00
2019-01-02T00:51:06.710Z,0.00
2019-01-02T00:52:06.696Z,0.00
2019-01-02T00:53:06.692Z,0.00
2019-01-02T00:54:06.686Z,0.00
2019-01-02T00:55:06.664Z,0.00
2019-01-02T00:56:06.656Z,0.00
2019-01-02T00:57:06.658Z,0.00
2019-01-02T00:58:06.631Z,0.00
2019-01-02T00:59:06.638Z,0.00
2019-01-02T01:00:06.610Z,0.00
2019-01-02T01:01:06.622Z,0.00
2019-01-02T01:02:06.593Z,0.00
2019-01-02T01:03:06.604Z,0.00
2019-01-02T01:04:06.579Z,0.00
2019-01-02T01:05:06.559Z,0.00
2019-01-02T01:06:06.547Z,0.00
2019-01-02T01:07:06.539Z,0.00
2019-01-02T01:08:06.526Z,0.00
2019-01-02T01:09:06.517Z,0.00
2019-01-02T01:10:06.515Z,0.00
2019-01-02T01:11:06.499Z,0.00
2019-01-02T01:12:06.481Z,0.00
2019-01-02T01:13:06.471Z,0.00
2019-01-02T01:14:06.460Z,0.00
2019-01-02T01:15:06.462Z,0.00
2019-01-02T01:16:06.438Z,0.00
2019-01-02T01:17:06.437Z,0.00
2019-01-02T01:18:06.419Z,0.00
2019-01-02T01:19:06.407Z,0.00
2019-01-02T01:20:06.426Z,0.00
2019-01-02T01:21:06.389Z,0.00
2019-01-02T01:22:06.379Z,0.00
2019-01-02T01:23:06.363Z,0.00
2019-01-02T01:24:06.357Z,0.00
2019-01-02T01:25:06.353Z,0.00
2019-01-02T01:26:06.334Z,0.00
2019-01-02T01:27:06.342Z,0.00
2019-01-02T01:28:06.313Z,0.00
2019-01-02T01:29:06.298Z,0.00
2019-01-02T01:30:06.303Z,0.00
2019-01-02T01:31:06.280Z,0.00
2019-01-02T01:32:06.270Z,0.00
2019-01-02T01:33:06.256Z,0.00
2019-01-02T01:34:06.245Z,0.00
2019-01-02T01:35:06.246Z,0.00
2019-01-02T01:36:06.224Z,0.00
2019-01-02T01:37:06.216Z,0.00
2019-01-02T01:38:06.204Z,0.00
2019-01-02T01:39:06.194Z,0.00
2019-01-02T01:40:06.219Z,0.00
2019-01-02T01:41:06.177Z,0.00
2019-01-02T01:42:06.171Z,0.00
2019-01-02T01:43:06.151Z,0.00
2019-01-02T01:44:06.138Z,0.00
2019-01-02T01:45:06.128Z,0.00
2019-01-02T01:46:06.139Z,0.00
2019-01-02T01:47:06.108Z,0.00
2019-01-02T01:48:06.102Z,0.00
2019-01-02T01:49:06.088Z,0.00
2019-01-02T01:50:06.083Z,0.00
2019-01-02T01:51:06.082Z,0.00
2019-01-02T01:52:06.059Z,0.00
2019-01-02T01:53:06.046Z,0.00
2019-01-02T01:54:06.040Z,0.00
2019-01-02T01:55:06.032Z,0.00
2019-01-02T01:56:06.025Z,0.00
2019-01-02T01:57:06.007Z,0.00
2019-01-02T01:58:05.995Z,0.00
2019-01-02T01:59:05.988Z,0.00
2019-01-02T02:00:05.972Z,0.00
2019-01-02T02:01:05.975Z,0.00
2019-01-02T02:02:05.958Z,0.00
2019-01-02T02:03:05.946Z,0.00
2019-01-02T02:04:05.929Z,0.00
2019-01-02T02:05:05.925Z,0.00
2019-01-02T02:06:05.923Z,0.00
2019-01-02T02:07:05.902Z,0.00
2019-01-02T02:08:05.888Z,0.00
2019-01-02T02:09:05.881Z,0.00
2019-01-02T02:10:05.882Z,0.00
2019-01-02T02:11:05.877Z,0.00
2019-01-02T02:12:05.892Z,0.00
2019-01-02T02:13:05.839Z,0.00
2019-01-02T02:14:05.829Z,0.00
2019-01-02T02:15:05.816Z,0.00
2019-01-02T02:16:05.831Z,0.00
2019-01-02T02:17:05.800Z,0.00
2019-01-02T02:18:05.784Z,0.00
2019-01-02T02:19:05.779Z,0.00
2019-01-02T02:20:05.769Z,0.00
2019-01-02T02:21:05.797Z,0.00
2019-01-02T02:22:05.744Z,0.00
2019-01-02T02:23:05.731Z,0.00
2019-01-02T02:24:05.726Z,0.00
2019-01-02T02:25:05.712Z,0.00
2019-01-02T02:26:05.703Z,0.00
2019-01-02T02:27:05.704Z,0.00
2019-01-02T02:28:05.676Z,0.00
2019-01-02T02:29:05.689Z,0.00
2019-01-02T02:30:05.656Z,0.00
2019-01-02T02:31:05.663Z,0.00
2019-01-02T02:32:05.652Z,0.00
2019-01-02T02:33:05.629Z,0.00
2019-01-02T02:34:05.611Z,0.00
2019-01-02T02:35:05.596Z,0.00
2019-01-02T02:36:05.594Z,0.00
2019-01-02T02:37:05.587Z,0.00
2019-01-02T02:38:05.574Z,0.00
2019-01-02T02:39:05.553Z,0.00
2019-01-02T02:40:05.542Z,0.00
2019-01-02T02:41:05.532Z,0.00
2019-01-02T02:42:05.538Z,0.00
2019-01-02T02:43:05.516Z,0.00
2019-01-02T02:44:05.503Z,0.00
2019-01-02T02:45:05.510Z,0.00
2019-01-02T02:46:05.478Z,0.00
2019-01-02T02:47:05.518Z,0.00
2019-01-02T02:48:05.468Z,0.00
2019-01-02T02:49:05.448Z,0.00
2019-01-02T02:50:05.438Z,0.00
2019-01-02T02:51:05.423Z,0.00
2019-01-02T02:52:05.426Z,0.00
2019-01-02T02:53:05.403Z,0.00
2019-01-02T02:54:05.429Z,0.00
2019-01-02T02:55:05.384Z,0.00
2019-01-02T02:56:05.371Z,0.00
2019-01-02T02:57:05.371Z,0.00
2019-01-02T02:58:05.348Z,0.00
2019-01-02T02:59:05.339Z,0.00
2019-01-02T03:00:05.330Z,0.00
2019-01-02T03:01:05.317Z,0.00
2019-01-02T03:02:05.333Z,0.00
2019-01-02T03:03:05.296Z,0.00
2019-01-02T03:04:05.286Z,0.00
2019-01-02T03:05:05.276Z,0.00
2019-01-02T03:06:05.264Z,0.00
2019-01-02T03:07:05.254Z,0.00
2019-01-02T03:08:05.254Z,0.00
2019-01-02T03:09:05.233Z,0.00
2019-01-02T03:10:05.223Z,0.00
2019-01-02T03:11:05.215Z,0.00
2019-01-02T03:12:05.198Z,0.00
2019-01-02T03:13:05.197Z,0.00
2019-01-02T03:14:05.178Z,0.00
2019-01-02T03:15:05.166Z,0.00
2019-01-02T03:16:05.156Z,0.00
2019-01-02T03:17:05.144Z,0.00
2019-01-02T03:18:05.148Z,0.00
2019-01-02T03:19:05.122Z,0.00
2019-01-02T03:20:05.119Z,0.00
2019-01-02T03:21:05.101Z,0.00
2019-01-02T03:22:05.094Z,0.00
2019-01-02T03:23:05.090Z,0.00
2019-01-02T03:24:05.068Z,0.00
2019-01-02T03:25:05.057Z,0.00
2019-01-02T03:26:05.048Z,0.00
2019-01-02T03:27:05.048Z,0.00
2019-01-02T03:28:05.037Z,0.00
2019-01-02T03:29:05.014Z,0.00
2019-01-02T03:30:05.004Z,0.00
2019-01-02T03:31:04.994Z,0.00
2019-01-02T03:32:04.984Z,0.00
2019-01-02T03:33:04.988Z,0.00
2019-01-02T03:34:04.964Z,0.00
2019-01-02T03:35:04.959Z,0.00
2019-01-02T03:36:04.941Z,0.00
2019-01-02T03:37:04.933Z,0.00
2019-01-02T03:38:04.934Z,0.00
2019-01-02T03:39:04.911Z,0.00
2019-01-02T03:40:04.897Z,0.00
2019-01-02T03:41:04.903Z,0.00
2019-01-02T03:42:04.878Z,0.00
2019-01-02T03:43:04.893Z,0.00
2019-01-02T03:44:04.854Z,0.00
2019-01-02T03:45:04.842Z,0.00
2019-01-02T03:46:04.836Z,0.00
2019-01-02T03:47:04.822Z,0.00
2019-01-02T03:48:04.810Z,0.00
2019-01-02T03:49:04.810Z,0.00
2019-01-02T03:50:04.789Z,0.00
2019-01-02T03:51:04.780Z,0.00
2019-01-02T03:52:04.813Z,0.00
2019-01-02T03:53:04.768Z,0.00
2019-01-02T03:54:04.760Z,0.00
2019-01-02T03:55:04.734Z,0.00
2019-01-02T03:56:04.726Z,0.00
2019-01-02T03:57:04.717Z,0.00
2019-01-02T03:58:04.701Z,0.00
2019-01-02T03:59:04.703Z,0.00
2019-01-02T04:00:04.682Z,0.00
2019-01-02T04:01:04.671Z,0.00
2019-01-02T04:02:04.664Z,0.00
2019-01-02T04:03:04.654Z,0.00
2019-01-02T04:04:04.665Z,0.00
2019-01-02T04:05:04.628Z,0.00
2019-01-02T04:06:04.617Z,0.00
2019-01-02T04:07:04.641Z,0.00
2019-01-02T04:08:04.594Z,0.00
2019-01-02T04:09:04.598Z,0.00
2019-01-02T04:10:04.575Z,0.00
2019-01-02T04:11:04.562Z,0.00
2019-01-02T04:12:04.553Z,0.00
2019-01-02T04:13:04.544Z,0.00
2019-01-02T04:14:04.541Z,0.00
2019-01-02T04:15:04.525Z,0.00
2019-01-02T04:16:04.509Z,0.00
2019-01-02T04:17:04.499Z,0.00
2019-01-02T04:18:04.488Z,0.00
2019-01-02T04:19:04.489Z,0.00
2019-01-02T04:20:04.473Z,0.00
2019-01-02T04:21:04.456Z,0.00
2019-01-02T04:22:04.455Z,0.00
2019-01-02T04:23:04.436Z,0.00
2019-01-02T04:24:04.454Z,0.00
2019-01-02T04:25:04.414Z,0.00
2019-01-02T04:26:04.404Z,0.00
2019-01-02T04:27:04.393Z,0.00
2019-01-02T04:28:04.381Z,0.00
2019-01-02T04:29:04.371Z,0.00
2019-01-02T04:30:04.371Z,0.00
2019-01-02T04:31:04.352Z,0.00
2019-01-02T04:32:04.338Z,0.00
2019-01-02T04:33:04.327Z,0.00
2019-01-02T04:34:04.317Z,0.00
2019-01-02T04:35:04.319Z,0.00
2019-01-02T04:36:04.296Z,0.00
2019-01-02T04:37:04.287Z,0.00
2019-01-02T04:38:04.276Z,0.00
2019-01-02T04:39:04.265Z,0.00
2019-01-02T04:40:04.265Z,0.00
2019-01-02T04:41:04.265Z,0.00
2019-01-02T04:42:04.238Z,0.00
2019-01-02T04:43:04.222Z,0.00
2019-01-02T04:44:04.211Z,0.00
2019-01-02T04:45:04.211Z,0.00
2019-01-02T04:46:04.194Z,0.00
2019-01-02T04:47:04.180Z,0.00
2019-01-02T04:48:04.170Z,0.00
2019-01-02T04:49:04.159Z,0.00
2019-01-02T04:50:04.573Z,0.00
2019-01-02T04:51:04.140Z,0.00
2019-01-02T04:52:04.129Z,0.00
2019-01-02T04:53:04.115Z,0.00
2019-01-02T04:54:04.107Z,0.00
2019-01-02T04:55:04.097Z,0.00
2019-01-02T04:56:04.111Z,0.00
2019-01-02T04:57:04.075Z,0.00
2019-01-02T04:58:04.063Z,0.00
2019-01-02T04:59:04.054Z,0.00
2019-01-02T05:00:04.043Z,0.00
2019-01-02T05:01:04.044Z,0.00
2019-01-02T05:02:04.022Z,0.00
2019-01-02T05:03:04.012Z,0.00
2019-01-02T05:04:04.000Z,0.00
2019-01-02T05:05:03.995Z,0.00
2019-01-02T05:06:03.991Z,0.00
2019-01-02T05:07:03.971Z,0.00
2019-01-02T05:08:03.957Z,0.00
2019-01-02T05:09:03.946Z,0.00
2019-01-02T05:10:03.935Z,0.00
2019-01-02T05:11:03.940Z,0.00
2019-01-02T05:12:03.914Z,0.00
2019-01-02T05:13:03.903Z,0.00
2019-01-02T05:14:03.894Z,0.00
2019-01-02T05:15:03.881Z,0.00
2019-01-02T05:16:03.882Z,0.00
2019-01-02T05:17:03.862Z,0.00
2019-01-02T05:18:03.850Z,0.00
2019-01-02T05:19:03.864Z,0.00
2019-01-02T05:20:03.826Z,0.00
2019-01-02T05:21:03.859Z,0.00
2019-01-02T05:22:03.808Z,0.00
2019-01-02T05:23:03.794Z,0.00
2019-01-02T05:24:03.808Z,0.00
2019-01-02T05:25:03.784Z,0.00
2019-01-02T05:26:03.765Z,0.00
2019-01-02T05:27:03.765Z,0.00
2019-01-02T05:28:03.743Z,0.00
2019-01-02T05:29:03.730Z,0.00
2019-01-02T05:30:03.721Z,0.00
2019-01-02T05:31:03.708Z,0.00
2019-01-02T05:32:03.709Z,0.00
2019-01-02T05:33:03.688Z,0.00
2019-01-02T05:34:03.682Z,0.00
2019-01-02T05:35:03.664Z,0.00
2019-01-02T05:36:03.656Z,0.00
2019-01-02T05:37:03.663Z,0.00
2019-01-02T05:38:03.647Z,0.00
2019-01-02T05:39:03.626Z,0.00
2019-01-02T05:40:03.614Z,0.00
2019-01-02T05:41:03.601Z,0.00
2019-01-02T05:42:03.610Z,0.00
2019-01-02T05:43:03.583Z,0.00
2019-01-02T05:44:03.571Z,0.00
2019-01-02T05:45:03.561Z,0.00
2019-01-02T05:46:03.560Z,0.00
2019-01-02T05:47:03.564Z,0.00
2019-01-02T05:48:03.527Z,0.00
2019-01-02T05:49:03.514Z,0.00
2019-01-02T05:50:03.512Z,0.00
2019-01-02T05:51:03.498Z,0.00
2019-01-02T05:52:03.492Z,0.00
2019-01-02T05:53:03.484Z,0.00
2019-01-02T05:54:03.461Z,0.00
2019-01-02T05:55:03.453Z,0.00
2019-01-02T05:56:03.441Z,0.00
2019-01-02T05:57:03.428Z,0.00
2019-01-02T05:58:03.428Z,0.00
2019-01-02T05:59:03.418Z,0.00
2019-01-02T06:00:03.400Z,0.00
2019-01-02T06:01:03.394Z,0.00
2019-01-02T06:02:03.384Z,0.00
2019-01-02T06:03:03.378Z,0.00
2019-01-02T06:04:03.362Z,0.00
2019-01-02T06:05:03.343Z,0.00
2019-01-02T06:06:03.332Z,0.00
2019-01-02T06:07:03.322Z,0.00
2019-01-02T06:08:03.328Z,0.00
2019-01-02T06:09:03.306Z,0.00
2019-01-02T06:10:03.292Z,0.00
2019-01-02T06:11:03.284Z,0.00
2019-01-02T06:12:03.269Z,0.00
2019-01-02T06:13:03.270Z,0.00
2019-01-02T06:14:03.252Z,0.00
2019-01-02T06:15:03.240Z,0.00
2019-01-02T06:16:03.230Z,0.00
2019-01-02T06:17:03.219Z,0.00
2019-01-02T06:18:03.217Z,0.00
2019-01-02T06:19:03.195Z,0.00
2019-01-02T06:20:03.186Z,0.00
2019-01-02T06:21:03.177Z,0.00
2019-01-02T06:22:03.160Z,0.00
2019-01-02T06:23:03.163Z,0.00
2019-01-02T06:24:03.139Z,0.00
2019-01-02T06:25:03.137Z,0.00
2019-01-02T06:26:03.121Z,0.00
2019-01-02T06:27:03.118Z,0.00
2019-01-02T06:28:03.134Z,0.00
2019-01-02T06:29:03.086Z,0.00
2019-01-02T06:30:03.089Z,0.00
2019-01-02T06:31:03.099Z,0.00
2019-01-02T06:32:03.057Z,0.00
2019-01-02T06:33:03.045Z,0.00
2019-01-02T06:34:03.051Z,0.00
2019-01-02T06:35:03.028Z,0.00
2019-01-02T06:36:03.011Z,0.00
2019-01-02T06:37:03.001Z,0.00
2019-01-02T06:38:02.997Z,0.00
2019-01-02T06:39:03.008Z,0.00
2019-01-02T06:40:02.980Z,0.00
2019-01-02T06:41:02.963Z,0.00
2019-01-02T06:42:02.946Z,0.00
2019-01-02T06:43:02.938Z,0.00
2019-01-02T06:44:02.939Z,0.00
2019-01-02T06:45:02.916Z,4.00
2019-01-02T06:46:02.905Z,4.00
2019-01-02T06:47:02.902Z,4.00
2019-01-02T06:48:02.885Z,4.00
2019-01-02T06:49:02.887Z,4.00
2019-01-02T06:50:02.863Z,4.00
2019-01-02T06:51:02.854Z,4.00
2019-01-02T06:52:02.864Z,8.00
2019-01-02T06:53:02.837Z,8.00
2019-01-02T06:54:02.857Z,8.00
2019-01-02T06:55:02.822Z,12.00
2019-01-02T06:56:02.809Z,12.00
2019-01-02T06:57:02.789Z,16.00
2019-01-02T06:58:02.779Z,16.00
2019-01-02T06:59:02.771Z,20.00
2019-01-02T07:00:02.772Z,20.00
2019-01-02T07:01:02.749Z,20.00
2019-01-02T07:02:02.747Z,28.00
2019-01-02T07:03:02.729Z,36.00
2019-01-02T07:04:02.715Z,36.00
2019-01-02T07:05:02.732Z,48.00
2019-01-02T07:06:02.695Z,52.00
2019-01-02T07:07:02.688Z,56.00
2019-01-02T07:08:02.676Z,56.00
2019-01-02T07:09:02.665Z,60.00
2019-01-02T07:10:02.671Z,68.00
2019-01-02T07:11:02.642Z,72.00
2019-01-02T07:12:02.628Z,76.00
2019-01-02T07:13:02.621Z,84.00
2019-01-02T07:14:02.613Z,88.00
2019-01-02T07:15:03.048Z,96.00
2019-01-02T07:16:02.595Z,108.00
2019-01-02T07:17:02.585Z,124.00
2019-01-02T07:18:02.566Z,128.00
2019-01-02T07:19:02.557Z,120.00
2019-01-02T07:20:02.564Z,124.00
2019-01-02T07:21:02.546Z,128.00
2019-01-02T07:22:02.530Z,128.00
2019-01-02T07:23:02.512Z,152.00
2019-01-02T07:24:02.510Z,160.00
2019-01-02T07:25:02.511Z,172.00
2019-01-02T07:26:02.481Z,180.00
2019-01-02T07:27:02.487Z,172.00
2019-01-02T07:28:02.472Z,164.00
2019-01-02T07:29:02.448Z,188.00
2019-01-02T07:30:02.476Z,208.00
2019-01-02T07:31:02.432Z,224.00
2019-01-02T07:32:02.416Z,240.00
2019-01-02T07:33:02.406Z,260.00
2019-01-02T07:34:02.399Z,276.00
2019-01-02T07:35:02.389Z,284.00
2019-01-02T07:36:02.396Z,292.00
2019-01-02T07:37:02.375Z,304.00
2019-01-02T07:38:02.365Z,300.00
2019-01-02T07:39:02.347Z,308.00
2019-01-02T07:40:02.335Z,312.00
2019-01-02T07:41:02.352Z,328.00
2019-01-02T07:42:02.312Z,336.00
2019-01-02T07:43:02.317Z,336.00
2019-01-02T07:44:02.289Z,348.00
2019-01-02T07:45:02.279Z,348.00
2019-01-02T07:46:02.282Z,348.00
2019-01-02T07:47:02.265Z,344.00
2019-01-02T07:48:02.249Z,372.00
2019-01-02T07:49:02.250Z,416.00
2019-01-02T07:50:02.230Z,436.00
2019-01-02T07:51:02.229Z,448.00
2019-01-02T07:52:02.204Z,456.00
2019-01-02T07:53:02.203Z,468.00
2019-01-02T07:54:02.183Z,484.00
2019-01-02T07:55:02.173Z,496.00
2019-01-02T07:56:02.176Z,496.00
2019-01-02T07:57:02.190Z,500.00
2019-01-02T07:58:02.141Z,504.00
2019-01-02T07:59:02.141Z,520.00
2019-01-02T08:00:02.120Z,524.00
2019-01-02T08:01:02.122Z,512.00
2019-01-02T08:02:02.113Z,504.00
2019-01-02T08:03:02.093Z,516.00
2019-01-02T08:04:02.092Z,544.00
2019-01-02T08:05:02.075Z,572.00
2019-01-02T08:06:02.077Z,564.00
2019-01-02T08:07:02.064Z,544.00
2019-01-02T08:08:02.041Z,532.00
2019-01-02T08:09:02.026Z,560.00
2019-01-02T08:10:02.019Z,568.00
2019-01-02T08:11:02.058Z,584.00
2019-01-02T08:12:01.998Z,572.00
2019-01-02T08:13:01.979Z,496.00
2019-01-02T08:14:01.971Z,516.00
2019-01-02T08:15:03.181Z,576.00
2019-01-02T08:16:01.954Z,620.00
2019-01-02T08:17:01.994Z,608.00
2019-01-02T08:18:01.932Z,592.00
2019-01-02T08:19:01.921Z,688.00
2019-01-02T08:20:01.920Z,716.00
2019-01-02T08:21:01.898Z,776.00
2019-01-02T08:22:01.910Z,832.00
2019-01-02T08:23:01.883Z,880.00
2019-01-02T08:24:01.881Z,1068.00
2019-01-02T08:25:01.862Z,1168.00
2019-01-02T08:26:01.849Z,1156.00
2019-01-02T08:27:01.846Z,1136.00
2019-01-02T08:28:01.823Z,1068.00
2019-01-02T08:29:01.835Z,976.00
2019-01-02T08:30:01.809Z,1024.00
2019-01-02T08:31:01.801Z,1240.00
2019-01-02T08:32:01.798Z,1448.00
2019-01-02T08:33:01.772Z,1464.00
2019-01-02T08:34:01.760Z,1392.00
2019-01-02T08:35:01.769Z,1372.00
2019-01-02T08:36:01.736Z,1392.00
2019-01-02T08:37:01.738Z,1444.00
2019-01-02T08:38:01.717Z,1492.00
2019-01-02T08:39:01.772Z,1492.00
2019-01-02T08:40:01.720Z,1492.00
2019-01-02T08:41:01.692Z,1512.00
2019-01-02T08:42:01.701Z,1524.00
2019-01-02T08:43:01.667Z,1488.00
2019-01-02T08:44:01.659Z,1516.00
2019-01-02T08:45:01.650Z,1632.00
2019-01-02T08:46:01.642Z,1748.00
2019-01-02T08:47:01.642Z,1820.00
2019-01-02T08:48:01.610Z,1788.00
2019-01-02T08:49:01.601Z,1700.00
2019-01-02T08:50:02.268Z,1620.00
2019-01-02T08:51:01.579Z,1508.00
2019-01-02T08:52:01.595Z,1556.00
2019-01-02T08:53:01.560Z,1708.00
2019-01-02T08:54:01.547Z,1888.00
2019-01-02T08:55:01.537Z,1868.00
2019-01-02T08:56:01.542Z,1612.00
2019-01-02T08:57:01.593Z,1336.00
2019-01-02T08:58:01.504Z,1180.00
2019-01-02T08:59:01.494Z,1152.00
2019-01-02T09:00:01.485Z,1152.00
2019-01-02T09:01:01.472Z,1232.00
2019-01-02T09:02:01.461Z,1032.00
2019-01-02T09:03:01.461Z,784.00
2019-01-02T09:04:01.445Z,668.00
2019-01-02T09:05:01.431Z,568.00
2019-01-02T09:06:01.439Z,484.00
2019-01-02T09:07:01.408Z,508.00
2019-01-02T09:08:01.410Z,484.00
2019-01-02T09:09:01.410Z,420.00
2019-01-02T09:10:01.381Z,440.00
2019-01-02T09:11:01.365Z,380.00
2019-01-02T09:12:01.370Z,436.00
2019-01-02T09:13:01.353Z,432.00
2019-01-02T09:14:01.339Z,404.00
2019-01-02T09:15:01.325Z,440.00
2019-01-02T09:16:01.313Z,392.00
2019-01-02T09:17:01.301Z,340.00
2019-01-02T09:18:01.302Z,316.00
2019-01-02T09:19:01.283Z,432.00
2019-01-02T09:20:01.299Z,752.00
2019-01-02T09:21:01.262Z,1144.00
2019-01-02T09:22:01.248Z,1664.00
2019-01-02T09:23:01.283Z,2092.00
2019-01-02T09:24:01.226Z,2580.00
2019-01-02T09:25:01.227Z,2788.00
2019-01-02T09:26:01.206Z,2792.00
2019-01-02T09:27:01.195Z,2860.00
2019-01-02T09:28:01.207Z,2712.00
2019-01-02T09:29:01.188Z,2016.00
2019-01-02T09:30:01.159Z,1704.00
2019-01-02T09:31:01.149Z,1716.00
2019-01-02T09:32:01.138Z,1704.00
2019-01-02T09:33:01.156Z,1432.00
2019-01-02T09:34:01.122Z,1308.00
2019-01-02T09:35:01.107Z,1592.00
2019-01-02T09:36:01.095Z,1628.00
2019-01-02T09:37:01.087Z,1812.00
2019-01-02T09:38:01.090Z,1768.00
2019-01-02T09:39:01.066Z,1492.00
2019-01-02T09:40:01.052Z,1352.00
2019-01-02T09:41:01.042Z,1300.00
2019-01-02T09:42:01.060Z,1492.00
2019-01-02T09:43:01.037Z,1864.00
2019-01-02T09:44:01.022Z,2392.00
2019-01-02T09:45:01.002Z,2568.00
2019-01-02T09:46:00.994Z,2504.00
2019-01-02T09:47:00.996Z,2392.00
2019-01-02T09:48:01.079Z,2432.00
2019-01-02T09:49:00.957Z,2328.00
2019-01-02T09:50:00.997Z,2368.00
2019-01-02T09:51:00.931Z,2340.00
2019-01-02T09:52:00.924Z,2280.00
2019-01-02T09:53:00.988Z,2168.00
2019-01-02T09:54:00.904Z,2216.00
2019-01-02T09:55:01.568Z,2328.00
2019-01-02T09:56:00.887Z,2356.00
2019-01-02T09:57:00.875Z,2496.00
2019-01-02T09:58:00.857Z,2604.00
2019-01-02T09:59:00.859Z,2612.00
2019-01-02T10:00:00.836Z,2752.00
2019-01-02T10:01:00.827Z,2844.00
2019-01-02T10:02:00.818Z,2940.00
2019-01-02T10:03:00.804Z,3028.00
2019-01-02T10:04:00.813Z,2976.00
2019-01-02T10:05:00.843Z,2728.00
2019-01-02T10:06:00.774Z,2220.00
2019-01-02T10:07:00.760Z,1920.00
2019-01-02T10:08:00.750Z,2224.00
2019-01-02T10:09:00.807Z,2672.00
2019-01-02T10:10:00.734Z,2728.00
2019-01-02T10:11:00.723Z,2716.00
2019-01-02T10:12:00.708Z,3008.00
2019-01-02T10:13:00.702Z,3252.00
2019-01-02T10:14:00.688Z,3168.00
2019-01-02T10:15:00.686Z,3092.00
2019-01-02T10:16:00.668Z,3148.00
2019-01-02T10:17:00.654Z,3144.00
2019-01-02T10:18:00.645Z,3100.00
2019-01-02T10:19:00.635Z,3012.00
2019-01-02T10:20:00.640Z,2980.00
2019-01-02T10:21:00.611Z,3120.00
2019-01-02T10:22:00.607Z,3136.00
2019-01-02T10:23:00.593Z,3128.00
2019-01-02T10:24:00.601Z,3032.00
2019-01-02T10:25:00.582Z,2988.00
2019-01-02T10:26:00.564Z,2948.00
2019-01-02T10:27:00.549Z,2892.00
2019-01-02T10:28:00.541Z,2832.00
2019-01-02T10:29:00.544Z,2748.00
2019-01-02T10:30:00.541Z,2760.00
2019-01-02T10:31:00.507Z,2832.00
2019-01-02T10:32:00.496Z,2904.00
2019-01-02T10:33:00.488Z,2936.00
2019-01-02T10:34:00.483Z,2924.00
2019-01-02T10:35:00.487Z,2928.00
2019-01-02T10:36:00.498Z,2940.00
2019-01-02T10:37:00.446Z,3016.00
2019-01-02T10:38:00.432Z,3036.00
2019-01-02T10:39:00.433Z,3116.00
2019-01-02T10:40:00.431Z,2976.00
2019-01-02T10:41:00.404Z,2944.00
2019-01-02T10:42:00.396Z,2904.00
2019-01-02T10:43:00.379Z,2904.00
2019-01-02T10:44:00.381Z,3016.00
2019-01-02T10:45:00.375Z,3192.00
2019-01-02T10:46:00.349Z,3368.00
2019-01-02T10:47:00.338Z,3448.00
2019-01-02T10:48:00.348Z,3540.00
2019-01-02T10:49:00.317Z,3700.00
2019-01-02T10:50:00.346Z,3784.00
2019-01-02T10:51:00.299Z,3824.00
2019-01-02T10:52:00.286Z,3888.00
2019-01-02T10:53:00.281Z,3884.00
2019-01-02T10:54:00.273Z,3768.00
2019-01-02T10:55:00.253Z,3728.00
2019-01-02T10:56:00.252Z,3668.00
2019-01-02T10:57:00.233Z,3568.00
2019-01-02T10:58:00.235Z,3512.00
2019-01-02T10:59:00.210Z,3484.00
2019-01-02T11:00:00.203Z,3460.00
2019-01-02T11:01:00.199Z,3412.00
2019-01-02T11:02:00.192Z,3352.00
2019-01-02T11:03:00.164Z,3272.00
2019-01-02T11:04:00.158Z,3160.00
2019-01-02T11:05:00.237Z,3020.00
2019-01-02T11:06:00.191Z,2824.00
2019-01-02T11:07:00.123Z,2508.00
2019-01-02T11:08:00.114Z,2184.00
2019-01-02T11:09:00.100Z,1944.00
2019-01-02T11:10:00.163Z,1784.00
2019-01-02T11:11:00.090Z,1736.00
2019-01-02T11:12:00.082Z,1824.00
2019-01-02T11:13:00.084Z,2116.00
2019-01-02T11:14:00.052Z,1936.00
2019-01-02T11:15:00.046Z,1956.00
2019-01-02T11:16:00.027Z,2432.00
2019-01-02T11:17:00.061Z,3408.00
2019-01-02T11:18:00.007Z,4544.00
2019-01-02T11:18:59.997Z,4428.00
2019-01-02T11:19:59.985Z,3556.00
2019-01-02T11:20:59.976Z,3388.00
2019-01-02T11:21:59.973Z,4172.00
2019-01-02T11:22:59.954Z,4280.00
2019-01-02T11:23:59.943Z,3260.00
2019-01-02T11:24:59.930Z,2740.00
2019-01-02T11:26:00.552Z,2556.00
2019-01-02T11:26:59.930Z,2592.00
2019-01-02T11:27:59.903Z,2736.00
2019-01-02T11:28:59.932Z,3336.00
2019-01-02T11:29:59.877Z,3664.00
2019-01-02T11:30:59.867Z,3464.00
2019-01-02T11:31:59.869Z,3460.00
2019-01-02T11:32:59.846Z,3228.00
2019-01-02T11:33:59.837Z,3424.00
2019-01-02T11:34:59.828Z,4068.00
2019-01-02T11:35:59.816Z,3316.00
2019-01-02T11:36:59.828Z,2832.00
2019-01-02T11:37:59.792Z,2896.00
2019-01-02T11:38:59.783Z,3124.00
2019-01-02T11:39:59.771Z,2960.00
2019-01-02T11:40:59.762Z,2480.00
2019-01-02T11:41:59.762Z,2328.00
2019-01-02T11:42:59.742Z,2328.00
2019-01-02T11:43:59.728Z,2532.00
2019-01-02T11:44:59.716Z,2624.00
2019-01-02T11:45:59.705Z,2704.00
2019-01-02T11:46:59.717Z,2556.00
2019-01-02T11:47:59.686Z,2636.00
2019-01-02T11:48:59.673Z,2608.00
2019-01-02T11:49:59.672Z,2196.00
2019-01-02T11:50:59.653Z,2724.00
2019-01-02T11:51:59.656Z,3472.00
2019-01-02T11:52:59.630Z,3544.00
2019-01-02T11:53:59.622Z,3444.00
2019-01-02T11:54:59.633Z,3236.00
2019-01-02T11:55:59.601Z,2640.00
2019-01-02T11:56:59.641Z,2516.00
2019-01-02T11:57:59.585Z,2824.00
2019-01-02T11:58:59.566Z,3580.00
2019-01-02T11:59:59.558Z,3908.00
2019-01-02T12:00:59.550Z,3396.00
2019-01-02T12:01:59.539Z,2456.00
2019-01-02T12:02:59.539Z,2144.00
2019-01-02T12:03:59.531Z,2028.00
2019-01-02T12:04:59.503Z,1916.00
2019-01-02T12:05:59.498Z,1608.00
2019-01-02T12:06:59.488Z,1616.00
2019-01-02T12:07:59.486Z,1556.00
2019-01-02T12:08:59.460Z,1500.00
2019-01-02T12:09:59.449Z,1484.00
2019-01-02T12:10:59.439Z,1500.00
2019-01-02T12:11:59.429Z,1532.00
2019-01-02T12:12:59.421Z,1608.00
2019-01-02T12:13:59.419Z,1764.00
2019-01-02T12:14:59.397Z,1716.00
2019-01-02T12:15:59.399Z,1536.00
2019-01-02T12:16:59.375Z,1476.00
2019-01-02T12:17:59.379Z,1556.00
2019-01-02T12:18:59.354Z,1752.00
2019-01-02T12:19:59.341Z,1892.00
2019-01-02T12:20:59.339Z,1656.00
2019-01-02T12:21:59.340Z,1548.00
2019-01-02T12:22:59.323Z,1488.00
2019-01-02T12:23:59.309Z,1448.00
2019-01-02T12:24:59.294Z,1456.00
2019-01-02T12:25:59.278Z,1484.00
2019-01-02T12:26:59.284Z,1460.00
2019-01-02T12:27:59.257Z,1424.00
2019-01-02T12:28:59.260Z,1424.00
2019-01-02T12:29:59.236Z,1436.00
2019-01-02T12:30:59.228Z,1444.00
2019-01-02T12:31:59.232Z,1464.00
2019-01-02T12:32:59.208Z,1476.00
2019-01-02T12:33:59.210Z,1396.00
2019-01-02T12:34:59.186Z,1440.00
2019-01-02T12:35:59.179Z,1456.00
2019-01-02T12:36:59.165Z,1380.00
2019-01-02T12:37:59.156Z,1376.00
2019-01-02T12:38:59.153Z,1348.00
2019-01-02T12:39:59.159Z,1316.00
2019-01-02T12:40:59.120Z,1332.00
2019-01-02T12:41:59.109Z,1352.00
2019-01-02T12:42:59.108Z,1356.00
2019-01-02T12:43:59.119Z,1352.00
2019-01-02T12:44:59.081Z,1372.00
2019-01-02T12:45:59.072Z,1368.00
2019-01-02T12:46:59.088Z,1352.00
2019-01-02T12:47:59.044Z,1344.00
2019-01-02T12:48:59.058Z,1340.00
2019-01-02T12:49:59.039Z,1344.00
2019-01-02T12:50:59.065Z,1360.00
2019-01-02T12:51:59.008Z,1380.00
2019-01-02T12:52:58.991Z,1448.00
2019-01-02T12:53:58.980Z,1536.00
2019-01-02T12:54:58.987Z,1592.00
2019-01-02T12:55:58.969Z,1688.00
2019-01-02T12:56:58.955Z,1832.00
2019-01-02T12:57:58.937Z,2020.00
2019-01-02T12:58:58.928Z,2132.00
2019-01-02T12:59:58.937Z,2200.00